sensor_id;sensor_type;location;lat;lon;timestamp;P1;durP1;ratioP1;P2;durP2;ratioP2
36411;SDS011;22445;52.100;5.176;2023-01-29T00:01:34;19.75;;;14.98;;
36411;SDS011;22445;52.100;5.176;2023-01-29T00:03:59;21.17;;;14.68;;
36411;SDS011;22445;52.100;5.176;2023-01-29T00:06:25;20.00;;;14.23;;
36411;SDS011;22445;52.100;5.176;2023-01-29T00:08:50;19.95;;;14.23;;
36411;SDS011;22445;52.100;5.176;2023-01-29T00:11:16;20.70;;;13.80;;
36411;SDS011;22445;52.100;5.176;2023-01-29T00:13:42;20.52;;;14.30;;
36411;SDS011;22445;52.100;5.176;2023-01-29T00:16:07;17.58;;;13.45;;
36411;SDS011;22445;52.100;5.176;2023-01-29T00:18:36;21.48;;;14.80;;
36411;SDS011;22445;52.100;5.176;2023-01-29T00:21:02;21.50;;;15.02;;
36411;SDS011;22445;52.100;5.176;2023-01-29T00:23:28;21.10;;;14.85;;
36411;SDS011;22445;52.100;5.176;2023-01-29T00:25:53;21.50;;;14.30;;
36411;SDS011;22445;52.100;5.176;2023-01-29T00:28:19;19.60;;;14.00;;
36411;SDS011;22445;52.100;5.176;2023-01-29T00:30:44;21.58;;;14.48;;
36411;SDS011;22445;52.100;5.176;2023-01-29T00:33:10;20.17;;;12.90;;
36411;SDS011;22445;52.100;5.176;2023-01-29T00:35:38;16.10;;;12.25;;
36411;SDS011;22445;52.100;5.176;2023-01-29T00:38:04;17.80;;;13.43;;
36411;SDS011;22445;52.100;5.176;2023-01-29T00:40:29;19.48;;;13.20;;
36411;SDS011;22445;52.100;5.176;2023-01-29T00:43:14;16.88;;;11.80;;
36411;SDS011;22445;52.100;5.176;2023-01-29T00:45:58;18.67;;;12.23;;
36411;SDS011;22445;52.100;5.176;2023-01-29T00:48:24;16.00;;;12.05;;
36411;SDS011;22445;52.100;5.176;2023-01-29T00:50:49;19.70;;;12.88;;
36411;SDS011;22445;52.100;5.176;2023-01-29T00:53:15;16.73;;;11.57;;
36411;SDS011;22445;52.100;5.176;2023-01-29T00:55:41;16.85;;;12.10;;
36411;SDS011;22445;52.100;5.176;2023-01-29T00:58:06;17.88;;;12.32;;
36411;SDS011;22445;52.100;5.176;2023-01-29T01:00:32;15.65;;;10.73;;
36411;SDS011;22445;52.100;5.176;2023-01-29T01:02:57;18.13;;;12.73;;
36411;SDS011;22445;52.100;5.176;2023-01-29T01:05:32;15.93;;;11.60;;
36411;SDS011;22445;52.100;5.176;2023-01-29T01:07:58;18.95;;;12.73;;
36411;SDS011;22445;52.100;5.176;2023-01-29T01:10:25;15.95;;;11.63;;
36411;SDS011;22445;52.100;5.176;2023-01-29T01:12:59;15.25;;;11.20;;
36411;SDS011;22445;52.100;5.176;2023-01-29T01:15:27;17.70;;;12.02;;
36411;SDS011;22445;52.100;5.176;2023-01-29T01:17:55;15.40;;;11.80;;
36411;SDS011;22445;52.100;5.176;2023-01-29T01:20:23;15.00;;;11.13;;
36411;SDS011;22445;52.100;5.176;2023-01-29T01:22:49;16.13;;;10.98;;
36411;SDS011;22445;52.100;5.176;2023-01-29T01:25:16;17.15;;;10.32;;
36411;SDS011;22445;52.100;5.176;2023-01-29T01:27:43;16.50;;;11.57;;
36411;SDS011;22445;52.100;5.176;2023-01-29T01:30:17;17.15;;;10.70;;
36411;SDS011;22445;52.100;5.176;2023-01-29T01:32:43;15.82;;;11.57;;
36411;SDS011;22445;52.100;5.176;2023-01-29T01:35:09;14.98;;;10.30;;
36411;SDS011;22445;52.100;5.176;2023-01-29T01:37:35;15.35;;;10.63;;
36411;SDS011;22445;52.100;5.176;2023-01-29T01:40:03;14.55;;;11.07;;
36411;SDS011;22445;52.100;5.176;2023-01-29T01:42:36;16.83;;;10.10;;
36411;SDS011;22445;52.100;5.176;2023-01-29T01:45:06;14.05;;;10.20;;
36411;SDS011;22445;52.100;5.176;2023-01-29T01:47:42;16.88;;;11.20;;
36411;SDS011;22445;52.100;5.176;2023-01-29T01:53:17;18.42;;;10.88;;
36411;SDS011;22445;52.100;5.176;2023-01-29T01:55:54;16.40;;;11.00;;
36411;SDS011;22445;52.100;5.176;2023-01-29T01:58:24;17.02;;;11.07;;
36411;SDS011;22445;52.100;5.176;2023-01-29T02:00:52;16.52;;;10.70;;
36411;SDS011;22445;52.100;5.176;2023-01-29T02:03:19;18.02;;;11.50;;
36411;SDS011;22445;52.100;5.176;2023-01-29T02:06:04;16.08;;;11.77;;
36411;SDS011;22445;52.100;5.176;2023-01-29T02:08:56;16.92;;;12.27;;
36411;SDS011;22445;52.100;5.176;2023-01-29T02:14:17;16.40;;;11.40;;
36411;SDS011;22445;52.100;5.176;2023-01-29T02:28:38;23.00;;;13.45;;
36411;SDS011;22445;52.100;5.176;2023-01-29T02:36:44;17.20;;;12.52;;
36411;SDS011;22445;52.100;5.176;2023-01-29T02:42:13;18.05;;;12.82;;
36411;SDS011;22445;52.100;5.176;2023-01-29T02:44:47;20.10;;;13.13;;
36411;SDS011;22445;52.100;5.176;2023-01-29T02:47:39;17.48;;;12.73;;
36411;SDS011;22445;52.100;5.176;2023-01-29T02:56:04;16.38;;;12.10;;
36411;SDS011;22445;52.100;5.176;2023-01-29T03:01:12;17.67;;;12.52;;
36411;SDS011;22445;52.100;5.176;2023-01-29T03:03:43;19.17;;;13.27;;
36411;SDS011;22445;52.100;5.176;2023-01-29T03:19:40;20.80;;;13.25;;
36411;SDS011;22445;52.100;5.176;2023-01-29T03:24:51;20.15;;;14.40;;
36411;SDS011;22445;52.100;5.176;2023-01-29T03:30:19;19.25;;;15.00;;
36411;SDS011;22445;52.100;5.176;2023-01-29T03:33:05;23.35;;;14.85;;
36411;SDS011;22445;52.100;5.176;2023-01-29T03:38:09;25.38;;;16.70;;
36411;SDS011;22445;52.100;5.176;2023-01-29T03:46:07;23.35;;;16.63;;
36411;SDS011;22445;52.100;5.176;2023-01-29T04:02:30;26.08;;;17.67;;
36411;SDS011;22445;52.100;5.176;2023-01-29T04:10:15;25.42;;;17.80;;
36411;SDS011;22445;52.100;5.176;2023-01-29T04:15:18;25.75;;;17.10;;
36411;SDS011;22445;52.100;5.176;2023-01-29T04:20:23;21.52;;;15.90;;
36411;SDS011;22445;52.100;5.176;2023-01-29T04:22:50;24.63;;;16.70;;
36411;SDS011;22445;52.100;5.176;2023-01-29T04:25:20;23.98;;;17.25;;
36411;SDS011;22445;52.100;5.176;2023-01-29T04:33:34;28.48;;;17.58;;
36411;SDS011;22445;52.100;5.176;2023-01-29T04:59:06;23.15;;;16.58;;
36411;SDS011;22445;52.100;5.176;2023-01-29T05:01:37;26.70;;;18.30;;
36411;SDS011;22445;52.100;5.176;2023-01-29T05:04:13;25.85;;;17.45;;
36411;SDS011;22445;52.100;5.176;2023-01-29T05:06:40;25.52;;;16.45;;
36411;SDS011;22445;52.100;5.176;2023-01-29T05:17:02;23.83;;;16.42;;
36411;SDS011;22445;52.100;5.176;2023-01-29T05:22:16;25.08;;;16.48;;
36411;SDS011;22445;52.100;5.176;2023-01-29T05:42:48;23.77;;;16.10;;
36411;SDS011;22445;52.100;5.176;2023-01-29T05:45:14;27.08;;;16.98;;
36411;SDS011;22445;52.100;5.176;2023-01-29T05:47:40;24.05;;;17.50;;
36411;SDS011;22445;52.100;5.176;2023-01-29T05:50:05;26.70;;;18.50;;
36411;SDS011;22445;52.100;5.176;2023-01-29T05:52:31;23.58;;;16.65;;
36411;SDS011;22445;52.100;5.176;2023-01-29T05:54:57;25.75;;;17.77;;
36411;SDS011;22445;52.100;5.176;2023-01-29T05:59:58;21.98;;;15.73;;
36411;SDS011;22445;52.100;5.176;2023-01-29T06:10:30;25.08;;;16.85;;
36411;SDS011;22445;52.100;5.176;2023-01-29T06:12:58;23.33;;;16.85;;
36411;SDS011;22445;52.100;5.176;2023-01-29T06:17:59;26.15;;;16.33;;
36411;SDS011;22445;52.100;5.176;2023-01-29T06:28:49;21.92;;;16.30;;
36411;SDS011;22445;52.100;5.176;2023-01-29T06:31:15;23.83;;;15.35;;
36411;SDS011;22445;52.100;5.176;2023-01-29T06:33:41;24.00;;;16.60;;
36411;SDS011;22445;52.100;5.176;2023-01-29T06:39:07;26.38;;;17.67;;
36411;SDS011;22445;52.100;5.176;2023-01-29T06:41:33;29.15;;;16.55;;
36411;SDS011;22445;52.100;5.176;2023-01-29T06:46:32;23.23;;;16.48;;
36411;SDS011;22445;52.100;5.176;2023-01-29T06:48:58;27.23;;;16.98;;
36411;SDS011;22445;52.100;5.176;2023-01-29T06:51:24;22.13;;;16.25;;
36411;SDS011;22445;52.100;5.176;2023-01-29T06:53:51;24.45;;;17.63;;
36411;SDS011;22445;52.100;5.176;2023-01-29T06:56:20;23.90;;;16.30;;
36411;SDS011;22445;52.100;5.176;2023-01-29T06:58:47;21.95;;;15.73;;
36411;SDS011;22445;52.100;5.176;2023-01-29T07:01:13;23.05;;;15.75;;
36411;SDS011;22445;52.100;5.176;2023-01-29T07:06:14;22.17;;;16.43;;
36411;SDS011;22445;52.100;5.176;2023-01-29T07:08:39;26.05;;;17.25;;
36411;SDS011;22445;52.100;5.176;2023-01-29T07:16:13;24.33;;;16.67;;
36411;SDS011;22445;52.100;5.176;2023-01-29T07:18:50;23.58;;;17.27;;
36411;SDS011;22445;52.100;5.176;2023-01-29T07:34:32;23.42;;;17.23;;
36411;SDS011;22445;52.100;5.176;2023-01-29T07:47:39;22.90;;;14.40;;
36411;SDS011;22445;52.100;5.176;2023-01-29T07:55:15;21.35;;;15.13;;
36411;SDS011;22445;52.100;5.176;2023-01-29T08:00:16;23.08;;;14.77;;
36411;SDS011;22445;52.100;5.176;2023-01-29T08:02:42;18.23;;;14.25;;
36411;SDS011;22445;52.100;5.176;2023-01-29T08:50:08;19.15;;;13.80;;
36411;SDS011;22445;52.100;5.176;2023-01-29T08:57:44;15.85;;;12.82;;
36411;SDS011;22445;52.100;5.176;2023-01-29T09:00:10;19.98;;;14.10;;
36411;SDS011;22445;52.100;5.176;2023-01-29T09:02:36;21.10;;;13.30;;
36411;SDS011;22445;52.100;5.176;2023-01-29T09:05:02;19.63;;;12.95;;
36411;SDS011;22445;52.100;5.176;2023-01-29T09:07:28;20.08;;;14.15;;
36411;SDS011;22445;52.100;5.176;2023-01-29T09:09:53;21.50;;;14.43;;
36411;SDS011;22445;52.100;5.176;2023-01-29T09:12:19;19.17;;;13.05;;
36411;SDS011;22445;52.100;5.176;2023-01-29T09:14:45;20.30;;;14.27;;
36411;SDS011;22445;52.100;5.176;2023-01-29T09:17:10;19.65;;;13.27;;
36411;SDS011;22445;52.100;5.176;2023-01-29T09:19:36;23.25;;;14.45;;
36411;SDS011;22445;52.100;5.176;2023-01-29T09:22:01;17.38;;;13.30;;
36411;SDS011;22445;52.100;5.176;2023-01-29T09:24:27;21.63;;;13.68;;
36411;SDS011;22445;52.100;5.176;2023-01-29T09:26:52;19.13;;;14.23;;
36411;SDS011;22445;52.100;5.176;2023-01-29T09:29:18;21.58;;;14.20;;
36411;SDS011;22445;52.100;5.176;2023-01-29T09:31:43;19.70;;;13.55;;
36411;SDS011;22445;52.100;5.176;2023-01-29T09:34:09;18.15;;;13.90;;
36411;SDS011;22445;52.100;5.176;2023-01-29T09:36:34;24.17;;;14.60;;
36411;SDS011;22445;52.100;5.176;2023-01-29T09:39:00;17.92;;;14.23;;
36411;SDS011;22445;52.100;5.176;2023-01-29T09:47:34;19.77;;;13.00;;
36411;SDS011;22445;52.100;5.176;2023-01-29T09:58:37;18.52;;;13.32;;
36411;SDS011;22445;52.100;5.176;2023-01-29T10:07:43;21.83;;;14.13;;
36411;SDS011;22445;52.100;5.176;2023-01-29T10:13:13;21.55;;;14.93;;
36411;SDS011;22445;52.100;5.176;2023-01-29T10:16:00;21.83;;;14.73;;
36411;SDS011;22445;52.100;5.176;2023-01-29T10:19:32;20.90;;;15.32;;
36411;SDS011;22445;52.100;5.176;2023-01-29T10:25:18;21.95;;;15.00;;
36411;SDS011;22445;52.100;5.176;2023-01-29T10:27:49;21.38;;;14.85;;
36411;SDS011;22445;52.100;5.176;2023-01-29T10:30:30;25.10;;;16.92;;
36411;SDS011;22445;52.100;5.176;2023-01-29T10:33:02;21.33;;;15.50;;
36411;SDS011;22445;52.100;5.176;2023-01-29T10:35:33;23.95;;;15.40;;
36411;SDS011;22445;52.100;5.176;2023-01-29T10:38:11;21.30;;;15.85;;
36411;SDS011;22445;52.100;5.176;2023-01-29T10:40:45;26.13;;;16.38;;
36411;SDS011;22445;52.100;5.176;2023-01-29T10:47:21;21.15;;;16.60;;
36411;SDS011;22445;52.100;5.176;2023-01-29T10:50:04;21.27;;;15.48;;
36411;SDS011;22445;52.100;5.176;2023-01-29T11:02:10;23.08;;;15.98;;
36411;SDS011;22445;52.100;5.176;2023-01-29T11:04:43;24.05;;;16.20;;
36411;SDS011;22445;52.100;5.176;2023-01-29T11:07:09;23.00;;;16.27;;
36411;SDS011;22445;52.100;5.176;2023-01-29T11:09:41;27.10;;;17.45;;
36411;SDS011;22445;52.100;5.176;2023-01-29T11:12:22;28.00;;;17.13;;
36411;SDS011;22445;52.100;5.176;2023-01-29T11:18:08;25.48;;;18.02;;
36411;SDS011;22445;52.100;5.176;2023-01-29T11:20:37;25.92;;;17.30;;
36411;SDS011;22445;52.100;5.176;2023-01-29T11:23:03;25.63;;;18.50;;
36411;SDS011;22445;52.100;5.176;2023-01-29T11:25:29;27.05;;;17.70;;
36411;SDS011;22445;52.100;5.176;2023-01-29T11:28:00;26.52;;;18.25;;
36411;SDS011;22445;52.100;5.176;2023-01-29T11:33:18;29.63;;;18.80;;
36411;SDS011;22445;52.100;5.176;2023-01-29T11:35:46;27.77;;;18.85;;
36411;SDS011;22445;52.100;5.176;2023-01-29T11:41:09;29.75;;;19.02;;
36411;SDS011;22445;52.100;5.176;2023-01-29T11:43:42;27.85;;;18.45;;
36411;SDS011;22445;52.100;5.176;2023-01-29T11:46:11;31.05;;;19.67;;
36411;SDS011;22445;52.100;5.176;2023-01-29T11:48:47;29.48;;;19.80;;
36411;SDS011;22445;52.100;5.176;2023-01-29T11:51:25;28.90;;;19.30;;
36411;SDS011;22445;52.100;5.176;2023-01-29T11:53:55;29.10;;;19.77;;
36411;SDS011;22445;52.100;5.176;2023-01-29T11:56:27;29.02;;;19.30;;
36411;SDS011;22445;52.100;5.176;2023-01-29T11:58:54;28.77;;;19.75;;
36411;SDS011;22445;52.100;5.176;2023-01-29T12:01:31;29.10;;;18.83;;
36411;SDS011;22445;52.100;5.176;2023-01-29T12:04:01;26.90;;;18.83;;
36411;SDS011;22445;52.100;5.176;2023-01-29T12:06:34;27.67;;;20.25;;
36411;SDS011;22445;52.100;5.176;2023-01-29T12:09:01;32.08;;;21.15;;
36411;SDS011;22445;52.100;5.176;2023-01-29T12:11:34;28.77;;;20.85;;
36411;SDS011;22445;52.100;5.176;2023-01-29T12:14:01;26.77;;;19.63;;
36411;SDS011;22445;52.100;5.176;2023-01-29T12:16:30;31.08;;;20.77;;
36411;SDS011;22445;52.100;5.176;2023-01-29T12:22:22;29.73;;;20.67;;
36411;SDS011;22445;52.100;5.176;2023-01-29T12:26:04;30.88;;;20.63;;
36411;SDS011;22445;52.100;5.176;2023-01-29T12:34:29;31.92;;;20.83;;
36411;SDS011;22445;52.100;5.176;2023-01-29T12:39:58;33.35;;;20.55;;
36411;SDS011;22445;52.100;5.176;2023-01-29T12:42:24;27.65;;;21.67;;
36411;SDS011;22445;52.100;5.176;2023-01-29T12:44:57;28.63;;;20.85;;
36411;SDS011;22445;52.100;5.176;2023-01-29T12:50:35;29.00;;;21.63;;
36411;SDS011;22445;52.100;5.176;2023-01-29T12:53:48;27.17;;;20.48;;
36411;SDS011;22445;52.100;5.176;2023-01-29T12:59:03;27.25;;;19.73;;
36411;SDS011;22445;52.100;5.176;2023-01-29T13:01:42;29.33;;;20.60;;
36411;SDS011;22445;52.100;5.176;2023-01-29T13:04:18;27.02;;;18.63;;
36411;SDS011;22445;52.100;5.176;2023-01-29T13:07:14;27.98;;;21.08;;
36411;SDS011;22445;52.100;5.176;2023-01-29T13:09:45;27.15;;;19.73;;
36411;SDS011;22445;52.100;5.176;2023-01-29T13:12:15;26.50;;;19.48;;
36411;SDS011;22445;52.100;5.176;2023-01-29T13:17:55;24.00;;;18.17;;
36411;SDS011;22445;52.100;5.176;2023-01-29T13:20:25;24.85;;;19.35;;
36411;SDS011;22445;52.100;5.176;2023-01-29T13:22:53;25.52;;;19.10;;
36411;SDS011;22445;52.100;5.176;2023-01-29T13:25:22;24.98;;;17.73;;
36411;SDS011;22445;52.100;5.176;2023-01-29T13:27:48;24.95;;;19.08;;
36411;SDS011;22445;52.100;5.176;2023-01-29T13:32:59;25.50;;;18.55;;
36411;SDS011;22445;52.100;5.176;2023-01-29T13:35:35;23.60;;;17.20;;
36411;SDS011;22445;52.100;5.176;2023-01-29T13:38:03;23.27;;;17.08;;
36411;SDS011;22445;52.100;5.176;2023-01-29T13:40:29;26.30;;;17.73;;
36411;SDS011;22445;52.100;5.176;2023-01-29T13:42:55;24.52;;;18.60;;
36411;SDS011;22445;52.100;5.176;2023-01-29T13:45:26;25.92;;;18.13;;
36411;SDS011;22445;52.100;5.176;2023-01-29T13:48:42;23.23;;;17.40;;
36411;SDS011;22445;52.100;5.176;2023-01-29T13:50:52;25.65;;;17.55;;
36411;SDS011;22445;52.100;5.176;2023-01-29T13:53:24;24.05;;;17.50;;
36411;SDS011;22445;52.100;5.176;2023-01-29T13:55:52;24.33;;;18.10;;
36411;SDS011;22445;52.100;5.176;2023-01-29T14:04:30;23.80;;;16.85;;
36411;SDS011;22445;52.100;5.176;2023-01-29T14:06:57;21.80;;;17.20;;
36411;SDS011;22445;52.100;5.176;2023-01-29T14:12:31;23.00;;;18.13;;
36411;SDS011;22445;52.100;5.176;2023-01-29T14:15:01;24.50;;;17.45;;
36411;SDS011;22445;52.100;5.176;2023-01-29T14:17:29;23.58;;;17.42;;
36411;SDS011;22445;52.100;5.176;2023-01-29T14:20:00;21.98;;;17.25;;
36411;SDS011;22445;52.100;5.176;2023-01-29T14:22:28;24.42;;;17.05;;
36411;SDS011;22445;52.100;5.176;2023-01-29T14:24:56;25.73;;;17.10;;
36411;SDS011;22445;52.100;5.176;2023-01-29T14:27:24;22.98;;;17.88;;
36411;SDS011;22445;52.100;5.176;2023-01-29T14:29:50;20.85;;;16.88;;
36411;SDS011;22445;52.100;5.176;2023-01-29T14:32:22;20.17;;;16.75;;
36411;SDS011;22445;52.100;5.176;2023-01-29T14:35:04;20.80;;;16.58;;
36411;SDS011;22445;52.100;5.176;2023-01-29T14:37:40;23.77;;;17.15;;
36411;SDS011;22445;52.100;5.176;2023-01-29T14:45:46;22.13;;;16.85;;
36411;SDS011;22445;52.100;5.176;2023-01-29T14:51:17;23.33;;;17.40;;
36411;SDS011;22445;52.100;5.176;2023-01-29T14:53:57;24.35;;;16.92;;
36411;SDS011;22445;52.100;5.176;2023-01-29T14:57:04;22.75;;;16.65;;
36411;SDS011;22445;52.100;5.176;2023-01-29T14:59:36;22.25;;;16.65;;
36411;SDS011;22445;52.100;5.176;2023-01-29T15:02:29;20.95;;;16.52;;
36411;SDS011;22445;52.100;5.176;2023-01-29T15:05:02;21.77;;;16.90;;
36411;SDS011;22445;52.100;5.176;2023-01-29T15:10:37;23.83;;;17.77;;
36411;SDS011;22445;52.100;5.176;2023-01-29T15:13:13;25.20;;;17.23;;
36411;SDS011;22445;52.100;5.176;2023-01-29T15:16:03;22.42;;;17.27;;
36411;SDS011;22445;52.100;5.176;2023-01-29T15:18:35;22.15;;;15.75;;
36411;SDS011;22445;52.100;5.176;2023-01-29T15:21:08;23.73;;;18.55;;
36411;SDS011;22445;52.100;5.176;2023-01-29T15:23:36;20.35;;;16.75;;
36411;SDS011;22445;52.100;5.176;2023-01-29T15:26:04;23.30;;;16.48;;
36411;SDS011;22445;52.100;5.176;2023-01-29T15:28:33;22.88;;;17.38;;
36411;SDS011;22445;52.100;5.176;2023-01-29T15:31:03;21.67;;;15.70;;
36411;SDS011;22445;52.100;5.176;2023-01-29T15:33:32;29.52;;;17.55;;
36411;SDS011;22445;52.100;5.176;2023-01-29T15:36:01;23.25;;;17.35;;
36411;SDS011;22445;52.100;5.176;2023-01-29T15:38:28;24.75;;;17.38;;
36411;SDS011;22445;52.100;5.176;2023-01-29T15:43:44;23.42;;;17.38;;
36411;SDS011;22445;52.100;5.176;2023-01-29T15:46:24;21.58;;;15.95;;
36411;SDS011;22445;52.100;5.176;2023-01-29T15:48:55;22.83;;;17.02;;
36411;SDS011;22445;52.100;5.176;2023-01-29T15:51:23;22.95;;;17.00;;
36411;SDS011;22445;52.100;5.176;2023-01-29T15:53:50;22.13;;;16.33;;
36411;SDS011;22445;52.100;5.176;2023-01-29T15:56:19;24.38;;;15.23;;
36411;SDS011;22445;52.100;5.176;2023-01-29T15:58:48;26.42;;;16.25;;
36411;SDS011;22445;52.100;5.176;2023-01-29T16:01:14;20.92;;;15.50;;
36411;SDS011;22445;52.100;5.176;2023-01-29T16:03:40;22.80;;;16.35;;
36411;SDS011;22445;52.100;5.176;2023-01-29T16:06:06;28.02;;;17.55;;
36411;SDS011;22445;52.100;5.176;2023-01-29T16:08:32;22.85;;;16.55;;
36411;SDS011;22445;52.100;5.176;2023-01-29T16:11:00;25.85;;;17.48;;
36411;SDS011;22445;52.100;5.176;2023-01-29T16:13:31;25.17;;;17.15;;
36411;SDS011;22445;52.100;5.176;2023-01-29T16:15:58;24.00;;;17.48;;
36411;SDS011;22445;52.100;5.176;2023-01-29T16:24:11;23.70;;;15.27;;
36411;SDS011;22445;52.100;5.176;2023-01-29T16:26:43;26.77;;;15.70;;
36411;SDS011;22445;52.100;5.176;2023-01-29T16:29:14;27.02;;;17.27;;
36411;SDS011;22445;52.100;5.176;2023-01-29T16:31:41;23.70;;;16.67;;
36411;SDS011;22445;52.100;5.176;2023-01-29T16:34:09;25.42;;;17.30;;
36411;SDS011;22445;52.100;5.176;2023-01-29T16:36:43;27.85;;;16.95;;
36411;SDS011;22445;52.100;5.176;2023-01-29T16:39:13;26.80;;;17.60;;
36411;SDS011;22445;52.100;5.176;2023-01-29T16:41:44;25.98;;;17.15;;
36411;SDS011;22445;52.100;5.176;2023-01-29T16:44:59;30.17;;;17.90;;
36411;SDS011;22445;52.100;5.176;2023-01-29T16:47:30;28.30;;;18.95;;
36411;SDS011;22445;52.100;5.176;2023-01-29T16:50:22;25.38;;;17.77;;
36411;SDS011;22445;52.100;5.176;2023-01-29T16:56:01;28.80;;;19.17;;
36411;SDS011;22445;52.100;5.176;2023-01-29T16:58:28;32.08;;;20.08;;
36411;SDS011;22445;52.100;5.176;2023-01-29T17:00:58;30.98;;;20.27;;
36411;SDS011;22445;52.100;5.176;2023-01-29T17:03:26;34.15;;;21.02;;
36411;SDS011;22445;52.100;5.176;2023-01-29T17:05:53;35.00;;;20.85;;
36411;SDS011;22445;52.100;5.176;2023-01-29T17:08:21;31.52;;;20.73;;
36411;SDS011;22445;52.100;5.176;2023-01-29T17:10:50;33.38;;;20.55;;
36411;SDS011;22445;52.100;5.176;2023-01-29T17:13:37;30.70;;;19.95;;
36411;SDS011;22445;52.100;5.176;2023-01-29T17:18:56;31.70;;;20.10;;
36411;SDS011;22445;52.100;5.176;2023-01-29T17:21:23;31.42;;;19.77;;
36411;SDS011;22445;52.100;5.176;2023-01-29T17:23:48;31.67;;;19.73;;
36411;SDS011;22445;52.100;5.176;2023-01-29T17:26:14;32.30;;;20.38;;
36411;SDS011;22445;52.100;5.176;2023-01-29T17:28:40;29.73;;;19.25;;
36411;SDS011;22445;52.100;5.176;2023-01-29T17:31:06;30.23;;;20.13;;
36411;SDS011;22445;52.100;5.176;2023-01-29T17:33:32;33.08;;;20.92;;
36411;SDS011;22445;52.100;5.176;2023-01-29T17:35:59;27.45;;;19.58;;
36411;SDS011;22445;52.100;5.176;2023-01-29T17:38:25;31.92;;;20.00;;
36411;SDS011;22445;52.100;5.176;2023-01-29T17:40:57;32.90;;;21.88;;
36411;SDS011;22445;52.100;5.176;2023-01-29T17:43:24;30.27;;;19.35;;
36411;SDS011;22445;52.100;5.176;2023-01-29T17:45:50;30.65;;;20.05;;
36411;SDS011;22445;52.100;5.176;2023-01-29T17:48:22;34.85;;;19.52;;
36411;SDS011;22445;52.100;5.176;2023-01-29T17:50:50;32.05;;;20.15;;
36411;SDS011;22445;52.100;5.176;2023-01-29T17:53:18;33.50;;;20.23;;
36411;SDS011;22445;52.100;5.176;2023-01-29T17:55:44;33.38;;;20.88;;
36411;SDS011;22445;52.100;5.176;2023-01-29T17:58:27;34.45;;;20.73;;
36411;SDS011;22445;52.100;5.176;2023-01-29T18:00:53;32.55;;;19.90;;
36411;SDS011;22445;52.100;5.176;2023-01-29T18:03:19;34.33;;;21.35;;
36411;SDS011;22445;52.100;5.176;2023-01-29T18:05:46;34.70;;;20.98;;
36411;SDS011;22445;52.100;5.176;2023-01-29T18:10:58;33.90;;;20.88;;
36411;SDS011;22445;52.100;5.176;2023-01-29T18:13:24;32.75;;;21.27;;
36411;SDS011;22445;52.100;5.176;2023-01-29T18:15:50;30.50;;;19.42;;
36411;SDS011;22445;52.100;5.176;2023-01-29T18:18:19;34.90;;;21.02;;
36411;SDS011;22445;52.100;5.176;2023-01-29T18:20:46;33.80;;;20.35;;
36411;SDS011;22445;52.100;5.176;2023-01-29T18:23:13;36.35;;;20.63;;
36411;SDS011;22445;52.100;5.176;2023-01-29T18:25:39;33.08;;;19.70;;
36411;SDS011;22445;52.100;5.176;2023-01-29T18:28:05;33.50;;;20.40;;
36411;SDS011;22445;52.100;5.176;2023-01-29T18:30:32;29.20;;;20.00;;
36411;SDS011;22445;52.100;5.176;2023-01-29T18:32:58;33.25;;;20.30;;
36411;SDS011;22445;52.100;5.176;2023-01-29T18:35:23;31.27;;;19.67;;
36411;SDS011;22445;52.100;5.176;2023-01-29T18:37:50;32.17;;;19.67;;
36411;SDS011;22445;52.100;5.176;2023-01-29T18:40:16;31.50;;;20.95;;
36411;SDS011;22445;52.100;5.176;2023-01-29T18:42:45;29.80;;;19.80;;
36411;SDS011;22445;52.100;5.176;2023-01-29T18:45:11;33.75;;;20.25;;
36411;SDS011;22445;52.100;5.176;2023-01-29T18:47:37;31.15;;;20.30;;
36411;SDS011;22445;52.100;5.176;2023-01-29T18:50:03;30.30;;;19.70;;
36411;SDS011;22445;52.100;5.176;2023-01-29T18:52:30;32.28;;;19.77;;
36411;SDS011;22445;52.100;5.176;2023-01-29T18:54:55;31.35;;;20.85;;
36411;SDS011;22445;52.100;5.176;2023-01-29T18:57:21;32.13;;;20.67;;
36411;SDS011;22445;52.100;5.176;2023-01-29T18:59:46;28.67;;;18.27;;
36411;SDS011;22445;52.100;5.176;2023-01-29T19:02:13;27.65;;;18.90;;
36411;SDS011;22445;52.100;5.176;2023-01-29T19:04:39;29.70;;;19.70;;
36411;SDS011;22445;52.100;5.176;2023-01-29T19:07:06;28.60;;;18.77;;
36411;SDS011;22445;52.100;5.176;2023-01-29T19:09:33;30.13;;;18.65;;
36411;SDS011;22445;52.100;5.176;2023-01-29T19:11:58;27.77;;;19.45;;
36411;SDS011;22445;52.100;5.176;2023-01-29T19:14:24;26.67;;;19.23;;
36411;SDS011;22445;52.100;5.176;2023-01-29T19:16:49;31.92;;;19.88;;
36411;SDS011;22445;52.100;5.176;2023-01-29T19:19:15;27.83;;;18.30;;
36411;SDS011;22445;52.100;5.176;2023-01-29T19:21:41;28.23;;;19.55;;
36411;SDS011;22445;52.100;5.176;2023-01-29T19:24:07;27.75;;;19.48;;
36411;SDS011;22445;52.100;5.176;2023-01-29T19:26:34;31.67;;;19.88;;
36411;SDS011;22445;52.100;5.176;2023-01-29T19:29:00;28.83;;;19.15;;
36411;SDS011;22445;52.100;5.176;2023-01-29T19:31:26;30.27;;;19.48;;
36411;SDS011;22445;52.100;5.176;2023-01-29T19:33:52;33.20;;;20.50;;
36411;SDS011;22445;52.100;5.176;2023-01-29T19:36:18;26.30;;;19.23;;
36411;SDS011;22445;52.100;5.176;2023-01-29T19:38:43;29.02;;;19.75;;
36411;SDS011;22445;52.100;5.176;2023-01-29T19:41:09;30.15;;;19.58;;
36411;SDS011;22445;52.100;5.176;2023-01-29T19:43:35;26.73;;;18.52;;
36411;SDS011;22445;52.100;5.176;2023-01-29T19:46:04;28.30;;;19.38;;
36411;SDS011;22445;52.100;5.176;2023-01-29T19:48:29;26.88;;;18.67;;
36411;SDS011;22445;52.100;5.176;2023-01-29T19:50:55;29.40;;;19.35;;
36411;SDS011;22445;52.100;5.176;2023-01-29T19:53:22;29.50;;;20.13;;
36411;SDS011;22445;52.100;5.176;2023-01-29T19:56:07;30.58;;;19.40;;
36411;SDS011;22445;52.100;5.176;2023-01-29T19:58:35;32.63;;;20.27;;
36411;SDS011;22445;52.100;5.176;2023-01-29T20:01:19;27.63;;;18.98;;
36411;SDS011;22445;52.100;5.176;2023-01-29T20:03:46;32.85;;;21.00;;
36411;SDS011;22445;52.100;5.176;2023-01-29T20:06:14;31.33;;;20.10;;
36411;SDS011;22445;52.100;5.176;2023-01-29T20:08:41;26.83;;;19.55;;
36411;SDS011;22445;52.100;5.176;2023-01-29T20:11:06;32.50;;;21.00;;
36411;SDS011;22445;52.100;5.176;2023-01-29T20:13:34;31.92;;;20.38;;
36411;SDS011;22445;52.100;5.176;2023-01-29T20:15:59;28.17;;;19.38;;
36411;SDS011;22445;52.100;5.176;2023-01-29T20:18:29;28.23;;;19.90;;
36411;SDS011;22445;52.100;5.176;2023-01-29T20:20:55;28.75;;;20.27;;
36411;SDS011;22445;52.100;5.176;2023-01-29T20:23:21;31.02;;;20.90;;
36411;SDS011;22445;52.100;5.176;2023-01-29T20:25:47;33.30;;;21.60;;
36411;SDS011;22445;52.100;5.176;2023-01-29T20:28:13;30.15;;;20.08;;
36411;SDS011;22445;52.100;5.176;2023-01-29T20:30:39;35.25;;;21.80;;
36411;SDS011;22445;52.100;5.176;2023-01-29T20:33:07;29.67;;;20.63;;
36411;SDS011;22445;52.100;5.176;2023-01-29T20:35:32;31.67;;;21.45;;
36411;SDS011;22445;52.100;5.176;2023-01-29T20:37:59;37.90;;;23.38;;
36411;SDS011;22445;52.100;5.176;2023-01-29T20:40:26;33.90;;;22.00;;
36411;SDS011;22445;52.100;5.176;2023-01-29T20:42:51;30.63;;;21.65;;
36411;SDS011;22445;52.100;5.176;2023-01-29T20:45:17;36.15;;;21.92;;
36411;SDS011;22445;52.100;5.176;2023-01-29T20:47:43;35.13;;;22.20;;
36411;SDS011;22445;52.100;5.176;2023-01-29T20:50:10;32.90;;;22.30;;